Time;durP1;ratioP1;P1;durP2;ratioP2;P2;SDS_P1;SDS_P2;PMS_P1;PMS_P2;Temp;Humidity;BMP_temperature;BMP_pressure;BME280_temperature;BME280_humidity;BME280_pressure;Samples;Min_cycle;Max_cycle;Signal;HPM_P1;HPM_P2
2022/03/16 00:01:13;;;;;;;16.53;8.80;;;;;;;4.38;56.39;97688.44;5094976;28;20458;-41
2022/03/16 00:03:40;;;;;;;28.33;12.33;;;;;;;4.37;56.37;97692.06;5095057;28;20450;-42
2022/03/16 00:06:08;;;;;;;34.57;11.93;;;;;;;4.38;56.20;97698.97;5094689;28;20435;-42
2022/03/16 00:08:36;;;;;;;25.00;12.70;;;;;;;4.37;56.17;97693.91;5094641;28;20812;-41
2022/03/16 00:11:05;;;;;;;18.43;9.93;;;;;;;4.32;55.35;97689.13;5094522;28;20438;-40
2022/03/16 00:13:33;;;;;;;14.07;7.97;;;;;;;4.24;54.91;97700.53;5093880;28;20998;-39
2022/03/16 00:16:00;;;;;;;12.53;8.53;;;;;;;4.22;55.42;97694.63;5094573;28;20439;-41
2022/03/16 00:18:28;;;;;;;9.07;7.47;;;;;;;4.19;55.52;97678.38;5095005;28;20794;-40
2022/03/16 00:20:55;;;;;;;10.50;6.20;;;;;;;4.18;55.44;97674.13;5094747;28;20443;-39
2022/03/16 00:23:23;;;;;;;14.63;6.70;;;;;;;4.20;55.70;97680.03;5094350;28;20474;-39
2022/03/16 00:25:51;;;;;;;18.53;6.90;;;;;;;4.21;55.86;97671.94;5094374;28;20948;-39
2022/03/16 00:28:19;;;;;;;11.70;6.70;;;;;;;4.25;55.70;97656.66;5094267;28;20445;-39
2022/03/16 00:30:46;;;;;;;19.73;6.97;;;;;;;4.27;55.92;97657.31;5094286;28;20522;-39
2022/03/16 00:33:13;;;;;;;15.10;6.87;;;;;;;4.21;56.56;97639.59;5094912;28;20833;-40
2022/03/16 00:35:41;;;;;;;20.53;10.20;;;;;;;4.23;56.26;97642.88;5094525;28;20465;-40
2022/03/16 00:38:09;;;;;;;17.90;9.50;;;;;;;4.22;56.67;97652.56;5094500;28;20446;-38
2022/03/16 00:40:37;;;;;;;25.87;10.50;;;;;;;4.18;56.23;97646.03;5094329;28;20447;-40
2022/03/16 00:43:06;;;;;;;20.47;11.37;;;;;;;4.19;55.50;97645.03;5094062;28;20450;-40
2022/03/16 00:45:33;;;;;;;12.50;7.37;;;;;;;4.13;55.70;97640.50;5093820;28;20474;-40
2022/03/16 00:48:00;;;;;;;13.50;6.77;;;;;;;4.22;55.47;97630.72;5094275;28;20533;-40
2022/03/16 00:50:28;;;;;;;8.30;5.40;;;;;;;4.24;55.43;97623.50;5094261;28;20443;-40
2022/03/16 00:52:55;;;;;;;8.97;5.03;;;;;;;4.26;55.88;97624.13;5094889;28;20513;-40
2022/03/16 00:55:22;;;;;;;15.13;6.17;;;;;;;4.24;56.44;97612.97;5094058;28;20450;-40
2022/03/16 00:57:50;;;;;;;15.10;7.63;;;;;;;4.25;56.96;97604.09;5093739;28;20446;-40
2022/03/16 01:00:18;;;;;;;16.10;7.50;;;;;;;4.12;56.53;97582.84;5093786;28;20446;-40
2022/03/16 01:02:47;;;;;;;10.80;6.53;;;;;;;4.23;55.82;97600.81;5093987;28;20449;-39
2022/03/16 01:05:14;;;;;;;7.57;5.70;;;;;;;4.24;55.51;97594.56;5094054;28;20785;-40
2022/03/16 01:07:41;;;;;;;23.30;7.27;;;;;;;4.24;56.37;97586.69;5093667;28;20485;-40
2022/03/16 01:10:09;;;;;;;17.73;8.37;;;;;;;4.23;55.50;97600.81;5093979;28;20461;-39
2022/03/16 01:12:36;;;;;;;8.07;5.10;;;;;;;4.21;54.89;97606.22;5093901;28;20528;-40
2022/03/16 01:15:04;;;;;;;8.23;5.47;;;;;;;4.22;53.32;97596.56;5093522;28;20801;-40
2022/03/16 01:17:33;;;;;;;12.53;6.93;;;;;;;4.23;55.24;97604.25;5093615;28;20443;-40
2022/03/16 01:20:00;;;;;;;16.70;6.73;;;;;;;4.19;55.76;97604.78;5093533;28;20449;-40
2022/03/16 01:22:27;;;;;;;12.37;8.07;;;;;;;4.21;55.69;97597.53;5093488;28;20450;-39
2022/03/16 01:24:55;;;;;;;22.00;11.20;;;;;;;4.22;55.80;97586.03;5093473;28;20449;-39
2022/03/16 01:27:22;;;;;;;22.73;9.67;;;;;;;4.20;55.91;97595.91;5093469;28;20944;-40
2022/03/16 01:29:49;;;;;;;14.03;8.10;;;;;;;4.05;55.99;97556.44;5098019;28;20435;-40
2022/03/16 01:32:17;;;;;;;14.63;7.73;;;;;;;4.17;56.16;97575.22;5097883;28;20490;-40
2022/03/16 01:34:45;;;;;;;12.10;7.20;;;;;;;4.14;55.64;97572.97;5097676;28;20442;-38
2022/03/16 01:37:13;;;;;;;12.73;7.40;;;;;;;4.12;56.28;97564.44;5097882;28;20922;-39
2022/03/16 01:39:40;;;;;;;15.23;7.90;;;;;;;4.10;56.77;97565.41;5097737;28;20492;-38
2022/03/16 01:42:08;;;;;;;19.27;9.00;;;;;;;4.09;57.30;97568.25;5097789;28;20442;-38
2022/03/16 01:44:47;;;;;;;22.33;10.87;;;;;;;4.08;55.85;97546.38;5097450;28;20517;-41
2022/03/16 01:47:16;;;;;;;16.10;8.90;;;;;;;4.07;56.57;97555.25;5097269;28;20516;-38
2022/03/16 01:49:45;;;;;;;11.13;6.70;;;;;;;4.04;56.02;97545.13;5097377;28;20926;-38
2022/03/16 01:52:16;;;;;;;11.37;7.13;;;;;;;4.03;55.97;97545.28;5097252;28;20857;-39
2022/03/16 01:54:43;;;;;;;17.00;6.67;;;;;;;4.03;55.20;97561.88;5097585;28;20781;-38
2022/03/16 01:57:12;;;;;;;16.30;7.17;;;;;;;4.03;55.17;97547.91;5097237;28;20438;-39
2022/03/16 01:59:39;;;;;;;12.80;6.00;;;;;;;4.02;55.28;97541.00;5097199;28;20435;-39
2022/03/16 02:02:07;;;;;;;10.57;6.73;;;;;;;4.04;55.49;97545.13;5097459;28;20439;-38
2022/03/16 02:04:35;;;;;;;14.07;7.60;;;;;;;4.03;56.12;97546.09;5097376;28;20443;-38
2022/03/16 02:07:04;;;;;;;19.33;9.60;;;;;;;4.03;56.84;97540.03;5097310;28;20840;-38
2022/03/16 02:09:31;;;;;;;21.67;10.70;;;;;;;3.98;55.92;97524.81;5097017;28;20952;-39
2022/03/16 02:11:59;;;;;;;23.70;11.50;;;;;;;3.94;56.23;97513.00;5097120;28;20845;-38
2022/03/16 02:14:27;;;;;;;39.43;15.20;;;;;;;3.92;56.83;97520.25;5096847;28;20439;-38
2022/03/16 02:16:56;;;;;;;32.83;12.43;;;;;;;3.90;56.65;97507.28;5096818;28;20442;-38
2022/03/16 02:19:24;;;;;;;22.73;11.00;;;;;;;3.88;56.45;97513.69;5097063;28;20442;-38
2022/03/16 02:21:57;;;;;;;19.10;9.30;;;;;;;3.87;56.91;97502.38;5096726;28;20442;-39
2022/03/16 02:24:29;;;;;;;19.77;8.17;;;;;;;3.92;57.62;97499.22;5096970;28;20427;-39
2022/03/16 02:26:56;;;;;;;21.60;8.10;;;;;;;3.92;58.14;97507.09;5097029;28;20431;-39
2022/03/16 02:29:24;;;;;;;16.10;5.40;;;;;;;3.92;58.83;97503.66;5096506;28;20838;-38
2022/03/16 02:31:51;;;;;;;9.60;4.73;;;;;;;3.94;58.67;97505.13;5096724;28;20450;-38
2022/03/16 02:34:19;;;;;;;11.23;4.70;;;;;;;3.95;57.92;97490.97;5096746;28;20443;-40
2022/03/16 02:36:46;;;;;;;8.67;5.00;;;;;;;3.93;58.17;97492.97;5096463;28;20952;-39
2022/03/16 02:39:13;;;;;;;14.17;4.63;;;;;;;3.83;58.17;97474.00;5096676;28;20443;-39
2022/03/16 02:41:42;;;;;;;12.53;5.30;;;;;;;3.95;58.46;97488.34;5096312;28;20927;-39
2022/03/16 02:44:09;;;;;;;23.23;9.33;;;;;;;3.95;57.87;97485.72;5096271;28;20453;-38
2022/03/16 02:46:36;;;;;;;25.90;12.10;;;;;;;3.97;57.42;97498.69;5096162;28;20463;-38
2022/03/16 02:49:03;;;;;;;28.80;13.00;;;;;;;3.97;57.56;97483.75;5096532;28;20439;-40
2022/03/16 02:51:31;;;;;;;33.17;14.60;;;;;;;3.95;57.19;97488.34;5096109;28;20922;-39
2022/03/16 02:53:58;;;;;;;34.53;14.17;;;;;;;3.97;56.91;97480.28;5096350;28;20849;-39
2022/03/16 02:56:27;;;;;;;28.20;13.10;;;;;;;3.97;56.11;97475.84;5096390;28;21028;-38
2022/03/16 02:58:56;;;;;;;20.90;10.43;;;;;;;3.93;57.54;97486.91;5095997;28;20447;-39
2022/03/16 03:01:24;;;;;;;21.57;7.23;;;;;;;3.90;58.51;97485.44;5096024;28;20438;-39
2022/03/16 03:03:51;;;;;;;18.23;8.83;;;;;;;3.89;58.51;97478.53;5095859;28;20435;-39
2022/03/16 03:06:18;;;;;;;23.87;9.87;;;;;;;3.88;58.91;97482.19;5096683;28;20454;-39
2022/03/16 03:08:46;;;;;;;34.60;14.97;;;;;;;3.87;59.83;97481.38;5095848;28;20525;-39
2022/03/16 03:11:13;;;;;;;31.20;14.83;;;;;;;3.84;60.66;97475.63;5095822;28;20445;-40
2022/03/16 03:13:41;;;;;;;32.33;13.00;;;;;;;3.83;60.85;97479.25;5096042;28;20531;-39
2022/03/16 03:16:09;;;;;;;28.00;13.00;;;;;;;3.79;61.10;97470.13;5095999;28;20454;-40
2022/03/16 03:18:37;;;;;;;29.33;13.93;;;;;;;3.76;61.48;97480.97;5095964;28;20834;-40
2022/03/16 03:21:05;;;;;;;23.93;11.40;;;;;;;3.71;62.17;97470.97;5095949;28;20443;-40
2022/03/16 03:23:32;;;;;;;30.33;12.83;;;;;;;3.62;62.04;97461.53;5095840;28;20450;-40
2022/03/16 03:25:59;;;;;;;34.20;15.93;;;;;;;3.49;61.69;97451.63;5095938;28;20443;-40
2022/03/16 03:28:26;;;;;;;44.10;20.80;;;;;;;3.56;62.07;97463.03;5095416;28;20439;-40
2022/03/16 03:30:54;;;;;;;38.37;19.30;;;;;;;3.54;62.28;97459.78;5095440;28;20492;-40
2022/03/16 03:33:22;;;;;;;36.53;21.83;;;;;;;3.54;62.35;97451.91;5095568;28;20490;-40
2022/03/16 03:35:50;;;;;;;43.00;17.83;;;;;;;3.51;62.28;97462.75;5095640;28;20808;-40
2022/03/16 03:38:17;;;;;;;49.03;22.47;;;;;;;3.40;62.64;97447.41;5095231;28;20439;-41
2022/03/16 03:40:45;;;;;;;34.73;18.20;;;;;;;3.41;62.86;97454.28;5095554;28;20443;-41
2022/03/16 03:43:12;;;;;;;27.80;16.20;;;;;;;3.28;63.18;97452.25;5095152;28;20454;-40
2022/03/16 03:45:40;;;;;;;14.53;9.80;;;;;;;3.19;63.83;97451.47;5095123;28;20497;-40
2022/03/16 03:48:07;;;;;;;14.50;7.27;;;;;;;3.13;64.08;97449.53;5095396;28;20450;-40
2022/03/16 03:50:36;;;;;;;16.07;9.57;;;;;;;3.12;64.36;97449.72;5094943;28;20454;-40
2022/03/16 03:53:03;;;;;;;16.60;11.90;;;;;;;3.12;64.49;97447.09;5094791;28;20491;-41
2022/03/16 03:55:30;;;;;;;60.67;26.20;;;;;;;3.11;64.41;97448.91;5094921;28;20447;-40
2022/03/16 03:57:58;;;;;;;26.90;14.73;;;;;;;3.00;64.48;97442.22;5095151;28;20446;-40
2022/03/16 04:00:25;;;;;;;18.43;10.10;;;;;;;2.99;64.53;97445.88;5095105;28;20871;-40
2022/03/16 04:02:53;;;;;;;22.77;8.83;;;;;;;2.99;64.90;97440.63;5094765;28;20450;-41
2022/03/16 04:05:21;;;;;;;18.70;8.00;;;;;;;3.02;64.73;97437.63;5094759;28;20965;-40
2022/03/16 04:07:49;;;;;;;11.40;7.87;;;;;;;3.05;64.55;97439.09;5094627;28;20926;-40
2022/03/16 04:10:17;;;;;;;13.80;7.80;;;;;;;3.05;64.95;97439.09;5094660;28;20449;-40
2022/03/16 04:12:45;;;;;;;13.00;7.63;;;;;;;3.02;65.30;97444.69;5094528;28;20479;-40
2022/03/16 04:15:12;;;;;;;18.63;9.13;;;;;;;3.03;65.96;97441.06;5094945;28;20454;-39
2022/03/16 04:17:39;;;;;;;31.63;15.90;;;;;;;3.04;65.69;97432.22;5094751;28;20447;-41
2022/03/16 04:20:08;;;;;;;52.60;20.77;;;;;;;3.05;65.97;97439.09;5094399;28;20439;-40
2022/03/16 04:22:35;;;;;;;57.47;25.27;;;;;;;3.04;66.02;97433.03;5094693;28;20466;-40
2022/03/16 04:25:05;;;;;;;43.67;20.77;;;;;;;2.93;65.99;97409.00;5094595;28;20443;-40
2022/03/16 04:27:32;;;;;;;38.67;18.50;;;;;;;2.99;66.21;97413.53;5094310;28;20443;-39
2022/03/16 04:30:00;;;;;;;70.37;25.20;;;;;;;3.06;66.02;97423.19;5094484;28;20451;-40
2022/03/16 04:32:27;;;;;;;62.33;29.20;;;;;;;3.07;66.53;97419.56;5094123;28;20449;-40
2022/03/16 04:34:54;;;;;;;69.20;27.13;;;;;;;3.07;66.29;97409.06;5094168;28;20443;-40
2022/03/16 04:37:22;;;;;;;66.33;28.27;;;;;;;3.10;66.31;97400.03;5094073;28;20439;-40
2022/03/16 04:39:49;;;;;;;92.77;40.67;;;;;;;3.06;66.72;97399.56;5094091;28;20605;-40
2022/03/16 04:42:18;;;;;;;98.47;43.27;;;;;;;3.04;66.25;97387.63;5094425;28;20467;-40
2022/03/16 04:44:45;;;;;;;110.73;47.23;;;;;;;3.02;66.81;97381.72;5093934;28;20791;-40
2022/03/16 04:47:12;;;;;;;112.43;45.83;;;;;;;2.99;67.02;97376.81;5080387;28;20480;-41
2022/03/16 04:49:39;;;;;;;107.20;40.57;;;;;;;2.98;67.03;97372.56;5093915;28;20434;-41
2022/03/16 04:52:07;;;;;;;114.40;47.07;;;;;;;3.01;66.99;97383.53;5094137;28;20767;-39
2022/03/16 04:54:34;;;;;;;210.97;81.70;;;;;;;3.05;66.01;97391.88;5093904;28;20499;-40
2022/03/16 04:57:01;;;;;;;171.00;60.80;;;;;;;3.10;65.67;97383.47;5094022;28;20443;-41
2022/03/16 04:59:30;;;;;;;112.50;47.13;;;;;;;3.13;65.43;97389.19;5093616;28;20942;-41
2022/03/16 05:01:57;;;;;;;99.97;46.20;;;;;;;3.17;65.39;97384.41;5093528;28;20439;-40
2022/03/16 05:04:24;;;;;;;103.80;47.30;;;;;;;3.16;65.03;97382.78;5093342;28;20454;-40
2022/03/16 05:06:52;;;;;;;94.10;42.80;;;;;;;3.21;65.24;97373.41;5093790;28;20443;-40
2022/03/16 05:09:19;;;;;;;90.33;39.17;;;;;;;3.21;65.22;97370.78;5094080;28;20516;-40
2022/03/16 05:11:46;;;;;;;63.73;32.07;;;;;;;3.20;65.05;97371.75;5093966;28;20831;-39
2022/03/16 05:14:13;;;;;;;68.27;33.17;;;;;;;3.19;64.92;97362.25;5093326;28;21025;-38
2022/03/16 05:16:42;;;;;;;69.23;29.50;;;;;;;3.17;64.73;97353.75;5093686;28;20515;-38
2022/03/16 05:19:09;;;;;;;42.07;23.60;;;;;;;3.19;64.91;97357.00;5093483;28;20513;-39
2022/03/16 05:21:36;;;;;;;71.80;25.60;;;;;;;3.21;65.40;97355.03;5093330;28;20439;-38
2022/03/16 05:24:04;;;;;;;62.97;27.80;;;;;;;3.22;65.30;97346.16;5093270;28;20931;-39
2022/03/16 05:26:32;;;;;;;52.07;25.83;;;;;;;3.10;nan;97325.75;5093451;28;20459;-38
2022/03/16 05:29:07;;;;;;;49.70;27.53;;;;;;;3.15;66.49;97333.91;5093613;28;20790;-41
2022/03/16 05:31:34;;;;;;;66.53;26.07;;;;;;;3.25;66.60;97345.00;5093694;28;20435;-40
2022/03/16 05:34:03;;;;;;;86.43;39.17;;;;;;;3.23;67.24;97341.75;5093653;28;20490;-39
2022/03/16 05:36:30;;;;;;;53.77;28.43;;;;;;;3.17;67.60;97340.63;5093230;28;20439;-38
2022/03/16 05:38:57;;;;;;;68.03;36.37;;;;;;;3.19;68.23;97336.00;5093621;28;20515;-38
2022/03/16 05:41:25;;;;;;;61.77;29.40;;;;;;;3.22;68.09;97329.59;5093559;28;20500;-38
2022/03/16 05:43:52;;;;;;;55.10;28.50;;;;;;;3.26;67.62;97344.81;5093499;28;20474;-39
2022/03/16 05:46:20;;;;;;;73.43;29.43;;;;;;;3.29;67.80;97341.00;5093322;28;20539;-39
2022/03/16 05:48:47;;;;;;;81.37;35.53;;;;;;;3.28;68.27;97337.56;5093188;28;20530;-38
2022/03/16 05:51:15;;;;;;;125.13;54.77;;;;;;;3.30;68.16;97341.84;5093513;28;20450;-39
2022/03/16 05:53:43;;;;;;;147.00;61.40;;;;;;;3.27;68.30;97328.09;5092825;28;20849;-39
2022/03/16 05:56:10;;;;;;;160.30;69.40;;;;;;;3.28;68.51;97340.19;5093494;28;20438;-39
2022/03/16 05:58:37;;;;;;;151.00;59.30;;;;;;;3.32;68.69;97332.00;5093106;28;20449;-38
2022/03/16 06:01:04;;;;;;;118.87;48.90;;;;;;;3.34;68.17;97324.75;5093149;28;20811;-39
2022/03/16 06:03:31;;;;;;;70.67;35.77;;;;;;;3.39;67.21;97325.03;5093150;28;20443;-39
2022/03/16 06:05:59;;;;;;;138.20;51.87;;;;;;;3.44;64.18;97325.28;5093085;28;20442;-40
2022/03/16 06:08:27;;;;;;;191.60;70.23;;;;;;;3.53;64.49;97316.38;5093048;28;20435;-38
2022/03/16 06:27:21;;;;;;;218.57;92.63;;;;;;;4.29;65.69;97311.75;5131962;27;20550;-38
2022/03/16 06:29:48;;;;;;;262.87;106.40;;;;;;;4.34;65.76;97302.50;5131647;27;20441;-39
2022/03/16 06:32:16;;;;;;;197.83;89.53;;;;;;;4.35;65.93;97320.72;5131445;28;20437;-38
2022/03/16 06:34:43;;;;;;;192.17;81.17;;;;;;;4.31;66.03;97307.13;5131414;27;20494;-39
2022/03/16 06:37:10;;;;;;;188.77;84.23;;;;;;;4.29;65.93;97318.81;5131362;28;20445;-38
2022/03/16 06:39:38;;;;;;;223.63;94.20;;;;;;;4.27;66.58;97316.38;5131402;27;20830;-38
2022/03/16 06:42:06;;;;;;;249.17;103.13;;;;;;;4.28;67.23;97319.81;5131333;27;20486;-38
2022/03/16 06:44:35;;;;;;;215.97;93.17;;;;;;;4.29;67.71;97322.25;5131310;27;20437;-38
2022/03/16 06:47:02;;;;;;;180.73;78.90;;;;;;;4.31;68.24;97308.94;5131336;28;20442;-38
2022/03/16 06:49:29;;;;;;;136.07;65.13;;;;;;;4.35;68.28;97309.41;5131233;27;20437;-39
2022/03/16 06:51:56;;;;;;;116.97;52.80;;;;;;;4.36;67.63;97309.19;5131523;27;20514;-38
2022/03/16 06:54:23;;;;;;;113.43;48.30;;;;;;;4.40;65.98;97304.41;5131090;27;20441;-40
2022/03/16 06:56:51;;;;;;;139.77;55.73;;;;;;;4.43;65.32;97307.47;5130860;28;20493;-38
2022/03/16 06:59:18;;;;;;;108.30;43.67;;;;;;;4.46;64.72;97307.09;5131374;27;20943;-39
2022/03/16 07:01:47;;;;;;;85.07;40.20;;;;;;;4.53;64.27;97301.09;5131241;28;20468;-38
2022/03/16 07:04:14;;;;;;;68.03;34.03;;;;;;;4.54;63.30;97315.88;5130952;28;20437;-39
2022/03/16 07:06:41;;;;;;;77.43;37.00;;;;;;;4.58;63.00;97311.88;5130890;27;20438;-38
2022/03/16 07:09:08;;;;;;;49.27;24.13;;;;;;;4.58;63.20;97307.44;5130811;28;20474;-39
2022/03/16 07:11:35;;;;;;;29.50;17.20;;;;;;;4.60;62.85;97294.91;5131093;27;20767;-38
2022/03/16 07:16:49;;;;;;;128.17;69.53;;;;;;;4.70;61.64;97307.75;5130783;28;20460;-38
2022/03/16 07:19:16;;;;;;;151.53;63.27;;;;;;;4.76;61.43;97309.66;5130942;28;20444;-39
2022/03/16 07:21:43;;;;;;;156.93;60.17;;;;;;;4.82;60.85;97301.00;5130527;28;20445;-38
2022/03/16 07:24:11;;;;;;;74.83;31.93;;;;;;;4.88;60.54;97305.53;5131454;27;20445;-39
2022/03/16 07:26:38;;;;;;;63.97;29.80;;;;;;;4.92;60.76;97301.50;5125941;27;20993;-38
2022/03/16 07:29:06;;;;;;;83.97;38.43;;;;;;;5.01;60.67;97293.47;5117096;28;20446;-38
2022/03/16 07:31:33;;;;;;;67.63;32.70;;;;;;;5.06;59.96;97294.56;5116832;28;20434;-38
2022/03/16 07:34:02;;;;;;;42.77;21.73;;;;;;;5.12;59.55;97293.81;5116744;28;20437;-39
2022/03/16 07:36:31;;;;;;;36.83;22.40;;;;;;;5.20;59.06;97292.84;5116869;28;20493;-39
2022/03/16 07:38:58;;;;;;;32.30;16.50;;;;;;;5.25;58.38;97289.66;5116616;28;20473;-39
2022/03/16 07:41:26;;;;;;;27.73;15.07;;;;;;;5.30;58.97;97285.44;5116923;28;20448;-38
2022/03/16 07:43:53;;;;;;;19.07;10.97;;;;;;;5.28;60.08;97286.63;5116880;28;20438;-38
2022/03/16 07:46:20;;;;;;;19.63;11.93;;;;;;;5.31;60.07;97289.72;5116381;28;20995;-39
2022/03/16 07:48:47;;;;;;;31.33;15.87;;;;;;;5.39;60.54;97285.31;5116493;28;20449;-38
2022/03/16 07:51:16;;;;;;;11.23;8.80;;;;;;;5.38;61.14;97275.75;5116668;28;20452;-38
2022/03/16 07:53:43;;;;;;;18.93;9.37;;;;;;;5.50;61.98;97292.66;5116663;28;20499;-40
2022/03/16 07:56:11;;;;;;;76.60;26.47;;;;;;;5.56;62.02;97281.38;5116182;28;20496;-39
2022/03/16 07:58:41;;;;;;;72.77;26.23;;;;;;;5.59;60.21;97278.34;5116152;28;20986;-39
2022/03/16 08:01:08;;;;;;;40.30;19.03;;;;;;;5.62;59.76;97280.59;5116200;28;20467;-39
2022/03/16 08:03:35;;;;;;;30.20;14.90;;;;;;;5.69;60.70;97281.47;5116477;28;20541;-39
2022/03/16 08:06:03;;;;;;;45.80;24.33;;;;;;;5.75;60.07;97267.50;5116397;28;20453;-39
2022/03/16 08:08:32;;;;;;;94.57;35.07;;;;;;;5.79;59.38;97272.41;5116411;28;20444;-38
2022/03/16 08:10:59;;;;;;;126.00;47.60;;;;;;;5.86;58.67;97291.69;5116008;28;20445;-39
2022/03/16 08:13:27;;;;;;;53.20;25.13;;;;;;;5.94;58.05;97278.38;5116341;28;20445;-39
2022/03/16 08:15:54;;;;;;;86.17;31.70;;;;;;;5.89;57.17;97265.78;5115652;28;20486;-38
2022/03/16 08:18:22;;;;;;;53.93;24.80;;;;;;;6.02;56.56;97280.84;5115741;28;20442;-39
2022/03/16 08:20:49;;;;;;;93.20;32.03;;;;;;;6.08;56.81;97274.81;5115791;28;20858;-38
2022/03/16 08:23:16;;;;;;;89.17;32.43;;;;;;;6.13;57.02;97280.31;5115727;28;20438;-38
2022/03/16 08:25:45;;;;;;;58.20;25.20;;;;;;;6.16;56.83;97281.75;5115721;28;20485;-39
2022/03/16 08:28:12;;;;;;;53.80;22.17;;;;;;;6.24;57.55;97286.03;5115916;28;20438;-39
2022/03/16 08:30:39;;;;;;;47.80;19.13;;;;;;;6.26;56.50;97276.09;5115897;27;20465;-39
2022/03/16 08:33:06;;;;;;;50.03;19.60;;;;;;;6.37;56.49;97294.00;5115854;28;20515;-39
2022/03/16 08:35:34;;;;;;;30.40;13.90;;;;;;;6.44;55.84;97284.28;5116121;28;20817;-39
2022/03/16 08:38:01;;;;;;;48.30;17.77;;;;;;;6.50;55.87;97278.22;5115135;28;20442;-39
2022/03/16 08:40:28;;;;;;;150.83;61.30;;;;;;;6.57;56.02;97275.59;5114900;28;20442;-38
2022/03/16 08:42:57;;;;;;;98.43;42.00;;;;;;;6.61;56.51;97274.19;5115665;28;20465;-38
2022/03/16 08:45:24;;;;;;;42.47;18.87;;;;;;;6.65;57.08;97271.97;5115237;28;20438;-39
2022/03/16 08:47:51;;;;;;;30.70;16.90;;;;;;;6.65;56.90;97275.44;5115275;28;20456;-39
2022/03/16 08:50:18;;;;;;;33.23;15.27;;;;;;;6.71;56.95;97273.81;5115414;28;20473;-39
2022/03/16 08:52:47;;;;;;;32.30;15.30;;;;;;;6.80;56.76;97272.63;5115457;28;20446;-38
2022/03/16 08:55:15;;;;;;;59.83;24.60;;;;;;;6.88;56.59;97277.72;5114999;28;20457;-38
2022/03/16 08:57:44;;;;;;;70.60;25.90;;;;;;;6.92;56.18;97276.28;5115262;28;20507;-39
2022/03/16 09:00:15;;;;;;;68.87;28.03;;;;;;;6.96;56.06;97269.59;5115302;28;20510;-39
2022/03/16 09:02:43;;;;;;;66.33;34.43;;;;;;;7.01;55.54;97268.16;5114934;28;20917;-38
2022/03/16 09:05:12;;;;;;;72.23;31.90;;;;;;;7.02;55.31;97267.97;5114890;28;20933;-39
2022/03/16 09:07:39;;;;;;;66.73;31.97;;;;;;;7.03;55.38;97260.84;5114821;28;20890;-39
2022/03/16 09:10:08;;;;;;;61.13;31.20;;;;;;;7.04;55.78;97263.31;5115151;28;20438;-39
2022/03/16 09:12:36;;;;;;;83.60;42.33;;;;;;;6.93;55.96;97240.16;5114775;28;20438;-38
2022/03/16 09:15:04;;;;;;;73.30;38.70;;;;;;;7.04;55.63;97263.31;5114755;28;20789;-37
2022/03/16 09:17:33;;;;;;;66.80;36.70;;;;;;;7.10;56.27;97262.50;5114851;28;20512;-38
2022/03/16 09:20:01;;;;;;;101.60;46.40;;;;;;;7.13;56.44;97256.00;5114636;28;21005;-38
2022/03/16 09:22:28;;;;;;;169.30;69.97;;;;;;;7.16;56.86;97271.41;5114675;28;20933;-38
2022/03/16 09:24:56;;;;;;;164.33;64.63;;;;;;;7.20;56.61;97261.28;5114192;28;20452;-40
2022/03/16 09:27:23;;;;;;;88.93;43.17;;;;;;;7.23;56.73;97261.69;5114495;28;20440;-38
2022/03/16 09:29:51;;;;;;;68.07;32.60;;;;;;;7.17;56.68;97242.19;5114405;28;21002;-38
2022/03/16 09:32:18;;;;;;;57.13;30.00;;;;;;;7.27;56.58;97252.34;5114416;28;20437;-39
2022/03/16 09:34:47;;;;;;;47.53;24.10;;;;;;;7.33;56.10;97250.69;5114602;28;20445;-38
2022/03/16 09:37:14;;;;;;;59.10;26.73;;;;;;;7.35;55.29;97257.41;5114281;28;20579;-39
2022/03/16 09:39:42;;;;;;;52.60;21.70;;;;;;;7.40;55.43;97262.09;5114195;28;20929;-39
2022/03/16 09:42:10;;;;;;;58.17;23.63;;;;;;;7.43;55.29;97260.88;5114245;28;20834;-38
2022/03/16 09:44:38;;;;;;;46.27;21.20;;;;;;;7.48;56.11;97255.78;5114560;28;20469;-36
2022/03/16 09:47:08;;;;;;;66.37;27.70;;;;;;;7.51;56.80;97253.53;5114245;28;20474;-36
2022/03/16 09:49:37;;;;;;;74.67;31.37;;;;;;;7.56;57.26;97250.28;5114154;28;20438;-36
2022/03/16 09:52:09;;;;;;;57.87;26.33;;;;;;;7.61;57.37;97257.59;5114411;28;20434;-36
2022/03/16 09:54:36;;;;;;;84.73;34.90;;;;;;;7.64;57.50;97258.00;5114410;28;20509;-39
2022/03/16 09:57:03;;;;;;;71.10;32.70;;;;;;;7.58;57.78;97248.25;5114282;28;20976;-39
2022/03/16 09:59:31;;;;;;;73.13;32.07;;;;;;;7.73;58.19;97262.03;5114015;28;20442;-38
2022/03/16 10:01:59;;;;;;;75.30;32.00;;;;;;;7.76;58.15;97251.03;5114335;28;20441;-39
2022/03/16 10:04:31;;;;;;;79.13;34.47;;;;;;;7.71;58.64;97240.28;5114269;28;20442;-38
2022/03/16 10:07:00;;;;;;;75.33;35.60;;;;;;;7.82;58.75;97248.59;5114222;28;20523;-38
2022/03/16 10:15:10;;;;;;;73.77;34.43;;;;;;;7.89;59.44;97229.03;5113970;28;20507;-39
2022/03/16 10:17:46;;;;;;;77.43;36.10;;;;;;;7.89;59.95;97239.63;5114285;28;20485;-39
2022/03/16 10:20:26;;;;;;;76.53;34.70;;;;;;;7.96;57.63;97229.06;5113833;28;20431;-38
2022/03/16 10:23:02;;;;;;;69.27;31.47;;;;;;;8.07;57.28;97252.19;5113705;28;20435;-39
2022/03/16 10:25:33;;;;;;;98.13;43.37;;;;;;;8.07;56.62;97252.19;5113517;28;20535;-39
2022/03/16 10:28:12;;;;;;;101.23;42.50;;;;;;;8.12;55.45;97249.72;5113941;28;20873;-39
2022/03/16 10:30:41;;;;;;;78.60;38.53;;;;;;;8.18;55.88;97248.09;5113679;28;20425;-39
2022/03/16 10:33:08;;;;;;;68.50;27.90;;;;;;;8.25;54.57;97253.34;5113902;28;20764;-39
2022/03/16 10:35:35;;;;;;;93.40;44.27;;;;;;;8.23;52.09;97250.09;5113629;28;20446;-39
2022/03/16 10:38:10;;;;;;;117.90;50.60;;;;;;;8.13;51.75;97230.19;5113793;28;20500;-39
2022/03/16 10:40:38;;;;;;;115.57;50.73;;;;;;;8.27;51.55;97254.75;5113508;28;20440;-39
2022/03/16 10:48:59;;;;;;;93.07;46.37;;;;;;;8.28;53.01;97242.34;5113586;28;20405;-38
2022/03/16 10:51:27;;;;;;;82.70;41.07;;;;;;;8.28;54.40;97243.16;5113423;28;20426;-38
2022/03/16 10:53:56;;;;;;;71.07;33.40;;;;;;;8.20;53.65;97236.25;5113358;28;20449;-38
2022/03/16 10:56:27;;;;;;;71.87;31.40;;;;;;;8.13;55.63;97232.00;5113255;28;20841;-36
2022/03/16 10:58:55;;;;;;;50.40;25.90;;;;;;;8.13;57.65;97219.63;5113307;28;20433;-36
2022/03/16 11:01:25;;;;;;;41.10;23.63;;;;;;;8.00;61.85;97203.78;5113290;28;20442;-36
2022/03/16 11:03:55;;;;;;;56.40;28.07;;;;;;;8.06;65.29;97223.31;5117431;28;20462;-37
2022/03/16 11:06:23;;;;;;;59.90;27.33;;;;;;;8.04;69.11;97218.22;5117490;28;20568;-36
2022/03/16 11:08:51;;;;;;;60.27;32.07;;;;;;;8.07;71.49;97224.94;5117149;28;20630;-36
2022/03/16 11:14:06;;;;;;;46.93;23.10;;;;;;;8.09;65.33;97210.47;5117116;28;20514;-36
2022/03/16 11:16:34;;;;;;;46.63;27.13;;;;;;;8.07;64.77;97209.88;5117949;28;20473;-36
2022/03/16 11:19:04;;;;;;;47.57;29.83;;;;;;;8.06;63.82;97202.16;5116860;28;20921;-36
2022/03/16 11:21:44;;;;;;;59.97;33.00;;;;;;;8.07;66.02;97209.88;5116855;28;20913;-36
2022/03/16 11:24:18;;;;;;;85.53;36.90;;;;;;;8.12;66.44;97206.59;5117090;28;20491;-38
2022/03/16 11:27:17;;;;;;;61.07;32.40;;;;;;;8.15;66.67;97201.72;5116596;28;20560;-39
2022/03/16 11:30:01;;;;;;;59.50;33.63;;;;;;;8.14;65.97;97221.22;5090852;28;20845;-37
2022/03/16 11:32:36;;;;;;;62.70;28.90;;;;;;;8.16;67.96;97213.91;5117076;28;20830;-36
2022/03/16 11:35:07;;;;;;;43.23;21.23;;;;;;;8.19;69.00;97224.06;5116584;27;20848;-36
2022/03/16 11:37:35;;;;;;;46.43;24.03;;;;;;;8.09;72.27;97207.84;5116544;28;20474;-37
2022/03/16 11:40:11;;;;;;;75.63;38.50;;;;;;;8.29;72.47;97217.50;5116729;28;20446;-37
2022/03/16 11:42:40;;;;;;;126.73;55.00;;;;;;;8.31;72.07;97226.06;5116845;28;20422;-36
2022/03/16 11:45:34;;;;;;;120.60;55.63;;;;;;;8.25;70.59;97237.47;5116327;28;20909;-36
2022/03/16 11:48:21;;;;;;;67.17;34.13;;;;;;;8.27;71.12;97238.06;5116333;28;20941;-37
2022/03/16 11:51:20;;;;;;;45.00;19.10;;;;;;;8.30;70.31;97245.59;5116328;28;20447;-37
2022/03/16 11:54:07;;;;;;;33.40;14.60;;;;;;;8.35;67.22;97240.50;5116355;28;20435;-37
2022/03/16 11:56:53;;;;;;;20.80;9.63;;;;;;;8.49;63.54;97239.41;5116118;28;20481;-39
2022/03/16 11:59:32;;;;;;;12.30;7.80;;;;;;;8.46;61.86;97209.94;5116179;28;20436;-37
2022/03/16 12:02:10;;;;;;;13.03;7.67;;;;;;;8.54;61.65;97210.50;5116518;28;20808;-38
2022/03/16 12:04:40;;;;;;;10.30;8.13;;;;;;;8.75;62.96;97227.84;5116422;28;20525;-38
2022/03/16 12:07:09;;;;;;;22.77;12.30;;;;;;;8.82;63.48;97219.88;5115975;28;20925;-36